Beale AFB, California
Current Conditions -  °F | °C
As of 3:58 PM on Monday 24 Nov 2014 (Local Time) from KBAB Reporting Station
Clear Clear  
Wind Chill: 61°   Ceiling: Unl
Heat Index: 61°   Visibility: 10mi
Dew Point: 41°   Wind: 2mph
Humidity: 48%   Direction: 330°NNW
Pressure: 30.33"   Gusts: NA
Location:  39.11°N, 121.36°W
Report Text: KBAB 242358Z 33002KT 10SM CLR 16/05 A3033 RMK AO2A SLP349 58006 $
Loading
Personal Weather Stations






























Interactive Weather Map New forecast layout! Learn more

10-Day Weather Forecast

Advertisements
Track Severe Weather on mobile